Flight Track Log - Related Links

Times and Time Zones

All times are in EDT time to prevent confusion due to time zone crossing. See the SWA2130 flight status page for this flight to view local times or setup timezone preferences in your user account.

Time Position Orientation Groundspeed Altitude Reporting Facility
EDT Latitude Longitude Course Direction KTS MPH feet Rate Location/Type
Mon 11:04:05 PM 31.7736 -106.3964 207° Southwest 198 228 6,000  Level Albuquerque Center
Mon 11:05:06 PM 31.7367 -106.3353 125° Southeast 230 265 9,200 3,000 Climbing Albuquerque Center
Mon 11:06:07 PM 31.6908 -106.2467 121° Southeast 325 374 12,100 3,590 Climbing Albuquerque Center
Mon 11:07:08 PM 31.6464 -106.1442 117° Southeast 349 402 16,500 3,295 Climbing Albuquerque Center
Mon 11:08:09 PM 31.5942 -106.0392 120° Southeast 372 428 18,800 2,829 Climbing Albuquerque Center
Mon 11:09:11 PM 31.5344 -105.9300 123° Southeast 395 455 22,300 3,268 Climbing Albuquerque Center
Mon 11:10:12 PM 31.4731 -105.8153 122° Southeast 415 478 25,500 3,246 Climbing Albuquerque Center
Mon 11:11:13 PM 31.4422 -105.6458 102° East 442 509 28,900 2,754 Climbing Albuquerque Center
Mon 11:12:14 PM 31.4167 -105.4992 102° East 458 527 31,100 1,869 Climbing Albuquerque Center
Mon 11:13:15 PM 31.3900 -105.3450 101° East 477 549 32,700 1,721 Climbing Albuquerque Center
Mon 11:14:16 PM 31.3619 -105.1814 101° East 498 573 34,600 2,049 Climbing Albuquerque Center
Mon 11:15:18 PM 31.3339 -105.0167 101° East 510 587 36,900 2,098 Climbing Albuquerque Center
Mon 11:16:19 PM 31.3047 -104.8556 102° East 505 581 38,900 1,033 Climbing Albuquerque Center
Mon 11:17:20 PM 31.2758 -104.6978 102° East 496 571 39,000 49 Climbing Albuquerque Center
Mon 11:18:21 PM 31.2481 -104.5400 102° East 494 568 39,000  Level Albuquerque Center
Mon 11:19:23 PM 31.2200 -104.3833 102° East 493 567 39,000  Level Albuquerque Center
Mon 11:20:24 PM 31.1897 -104.2258 103° East 495 570 39,000  Level Albuquerque Center
Mon 11:21:25 PM 31.1611 -104.0703 102° East 492 566 39,000  Level Albuquerque Center
Mon 11:22:26 PM 31.1317 -103.9153 102° East 489 563 39,000  Level Albuquerque Center
Mon 11:23:28 PM 31.0983 -103.7411 103° East 488 562 39,000  Level Albuquerque Center
Mon 11:24:29 PM 31.0669 -103.5861 103° East 489 563 39,000  Level Albuquerque Center
Mon 11:25:30 PM 31.0394 -103.4331 102° East 487 560 39,000  Level Albuquerque Center
Mon 11:26:31 PM 31.0092 -103.2806 103° East 485 558 39,000  Level Albuquerque Center
Mon 11:27:33 PM 30.9803 -103.1275 102° East 484 557 39,000  Level Albuquerque Center
Mon 11:28:34 PM 30.9508 -102.9764 103° East 483 556 39,000  Level Albuquerque Center
Mon 11:29:35 PM 30.9058 -102.7961 106° East 485 558 39,000  Level Albuquerque Center
Mon 11:30:36 PM 30.8656 -102.6461 107° East 488 562 39,000  Level Albuquerque Center
Mon 11:31:38 PM 30.8278 -102.4967 106° East 487 560 39,000  Level Albuquerque Center
Mon 11:32:39 PM 30.7875 -102.3467 107° East 489 563 39,000  Level Albuquerque Center
Mon 11:33:40 PM 30.7489 -102.1975 107° East 488 562 39,000  Level Albuquerque Center
Mon 11:34:42 PM 30.7086 -102.0483 107° East 488 562 39,000  Level Albuquerque Center
Mon 11:35:43 PM 30.6686 -101.8978 107° East 489 563 39,000  Level Albuquerque Center
Mon 11:37:35 PM 30.5856 -101.5958 108° East 491 565 39,000  Level Houston Center
Mon 11:38:36 PM 30.5428 -101.4556 109° East 496 571 39,000  Level Houston Center
Mon 11:39:36 PM 30.4961 -101.3064 110° East 495 570 39,000  Level Houston Center
Mon 11:40:37 PM 30.4481 -101.1556 110° East 498 573 39,000  Level Houston Center
Mon 11:41:38 PM 30.4017 -101.0047 110° East 498 573 39,000  Level Houston Center
Mon 11:42:38 PM 30.3533 -100.8572 111° Southeast 493 567 39,000  Level Houston Center
Mon 11:43:39 PM 30.3072 -100.7081 110° East 492 566 39,000  Level Houston Center
Mon 11:44:40 PM 30.2600 -100.5597 110° East 491 565 39,000 -50 Level Houston Center
Mon 11:45:40 PM 30.2131 -100.4117 110° East 488 562 38,900 -1,339 Descending Houston Center
Mon 11:46:41 PM 30.1653 -100.2614 110° East 489 563 36,300 -3,098 Descending Houston Center
Mon 11:47:42 PM 30.1158 -100.1031 110° East 506 582 32,600 -3,769 Descending Houston Center
Mon 11:48:42 PM 30.0650 -99.9506 111° Southeast 507 583 28,700 -3,521 Descending Houston Center
Mon 11:49:43 PM 30.0169 -99.8036 111° Southeast 492 566 25,500 -3,049 Descending Houston Center
Mon 11:50:44 PM 29.9711 -99.6631 111° Southeast 474 545 22,500 -2,926 Descending Houston Center
Mon 11:51:44 PM 29.9272 -99.5292 111° Southeast 451 519 19,600 -2,777 Descending Houston Center
Mon 11:52:45 PM 29.8853 -99.4033 111° Southeast 426 490 16,900 -2,777 Descending Houston Center
Mon 11:53:45 PM 29.8453 -99.2797 110° East 411 473 14,000 -3,273 Descending Houston Center
Mon 11:54:13 PM 29.8169 -99.1989 112° Southeast 401 461 12,100 -2,656 Descending Houston Center
Mon 11:54:46 PM 29.7989 -99.1378 109° East 394 453 11,300 -1,468 Descending Houston Center
Mon 11:55:47 PM 29.7622 -99.0294 111° Southeast 356 410 9,800 -1,339 Descending Houston Center
Mon 11:56:47 PM 29.7311 -98.9347 111° Southeast 319 367 8,600 -1,289 Descending Houston Center
Mon 11:57:48 PM 29.7008 -98.8458 111° Southeast 302 348 7,200 -1,339 Descending Houston Center
Mon 11:58:48 PM 29.6733 -98.7636 111° Southeast 280 322 5,900 -1,339 Descending Houston Center
Mon 11:59:49 PM 29.6419 -98.6872 115° Southeast 267 307 4,500 -1,289 Descending Houston Center
Tue 12:00:49 AM 29.6164 -98.6192 113° Southeast 235 270 3,300 -992 Descending Houston Center
Tue 12:01:50 AM 29.5942 -98.5706 118° Southeast 180 207 2,500 -744 Descending Houston Center
Tue 12:02:50 AM 29.5742 -98.5306 120° Southeast 142 163 1,800 -595 Descending Houston Center
Tue 12:03:51 AM 29.5567 -98.5000 123° Southeast 119 137 1,300 -496 Descending Houston Center
Tue 12:04:51 AM 29.5347 -98.4733 133° Southeast 115 132 800 -500 Descending Houston Center
Tue 12:06:00 AM 29.5333 -98.4667 90° East  Level FlightAware Approximate
Tue 12:13:00 AM 29.5340 -98.4691 90° East  Level Estimated
Tue 12:14:00 AM 29.5333 -98.4667 90° East  Level FlightAware Approximate

Login

Don't have an account? Register now (free) for customized features, flight alerts, and more!